Saint Charles, Iowa
Current Conditions -  °F | °C
As of 1:15 PM on Tuesday 21 Oct 2014 (Local Time) from KI75 Reporting Station
Clear Clear  
Wind Chill: 67°   Ceiling: Unl
Heat Index: 67°   Visibility: 7mi
Dew Point: 45°   Wind: 7mph
Humidity: 45%   Direction: 60°ENE
Pressure: 30.13"   Gusts: NA
Location:  41.29°N, 93.81°W
Report Text: KI75 211815Z AUTO 06006KT 7SM CLR 20/07 A3013 RMK AO2 T01950073
Loading
Personal Weather Stations






























Interactive Weather Map
Tropical Storm Tracking
New forecast layout! Learn more

10-Day Weather Forecast

Advertisements
Track Severe Weather on mobile